createdAt,value
2022-11-13T00:01:15.176Z,1.90
2022-11-13T00:04:01.796Z,1.80
2022-11-13T00:06:52.519Z,1.90
2022-11-13T00:09:41.632Z,1.80
2022-11-13T00:12:29.960Z,2.00
2022-11-13T00:15:16.882Z,1.80
2022-11-13T00:18:03.501Z,1.90
2022-11-13T00:20:50.075Z,2.10
2022-11-13T00:23:38.068Z,2.00
2022-11-13T00:26:27.222Z,2.00
2022-11-13T00:29:13.818Z,2.20
2022-11-13T00:32:00.436Z,2.40
2022-11-13T00:34:48.333Z,2.30
2022-11-13T00:37:35.717Z,2.20
2022-11-13T00:40:23.671Z,1.90
2022-11-13T00:43:10.400Z,2.70
2022-11-13T00:45:56.964Z,2.00
2022-11-13T00:48:43.460Z,1.60
2022-11-13T00:51:30.006Z,1.60
2022-11-13T00:54:16.852Z,1.80
2022-11-13T00:57:04.686Z,1.60
2022-11-13T00:59:51.545Z,1.60
2022-11-13T01:02:38.192Z,1.70
2022-11-13T01:05:24.700Z,1.60
2022-11-13T01:08:11.863Z,1.60
2022-11-13T01:10:58.642Z,1.80
2022-11-13T01:13:48.344Z,1.60
2022-11-13T01:16:34.959Z,1.60
2022-11-13T01:19:21.594Z,1.50
2022-11-13T01:22:08.195Z,1.40
2022-11-13T01:24:54.767Z,1.40
2022-11-13T01:27:41.686Z,1.50
2022-11-13T01:30:29.716Z,1.50
2022-11-13T01:33:16.423Z,1.40
2022-11-13T01:36:04.651Z,1.40
2022-11-13T01:38:52.513Z,1.30
2022-11-13T01:41:39.044Z,1.30
2022-11-13T01:44:25.531Z,1.30
2022-11-13T01:47:13.571Z,1.30
2022-11-13T01:50:03.440Z,1.20
2022-11-13T01:52:50.262Z,1.20
2022-11-13T01:55:37.183Z,1.10
2022-11-13T01:58:24.101Z,1.10
2022-11-13T02:01:11.221Z,1.10
2022-11-13T02:03:59.029Z,1.00
2022-11-13T02:06:48.763Z,1.10
2022-11-13T02:09:37.810Z,1.10
2022-11-13T02:12:31.282Z,1.10
2022-11-13T02:15:20.033Z,0.90
2022-11-13T02:18:06.712Z,0.90
2022-11-13T02:21:05.205Z,0.90
2022-11-13T02:24:00.749Z,1.60
2022-11-13T02:26:50.863Z,1.40
2022-11-13T02:29:37.786Z,0.90
2022-11-13T02:32:24.831Z,0.70
2022-11-13T02:35:12.031Z,0.70
2022-11-13T02:38:00.995Z,0.70
2022-11-13T02:40:48.163Z,0.60
2022-11-13T02:43:35.992Z,0.60
2022-11-13T02:46:22.698Z,0.50
2022-11-13T02:49:09.350Z,0.60
2022-11-13T02:51:55.801Z,0.50
2022-11-13T02:54:42.473Z,0.60
2022-11-13T02:57:29.039Z,0.60
2022-11-13T03:00:19.298Z,0.40
2022-11-13T03:03:06.936Z,0.50
2022-11-13T03:05:53.465Z,0.50
2022-11-13T03:08:40.422Z,0.30
2022-11-13T03:11:27.505Z,0.40
2022-11-13T03:14:13.965Z,0.40
2022-11-13T03:17:02.046Z,0.30
2022-11-13T03:19:49.015Z,0.40
2022-11-13T03:22:35.836Z,0.20
2022-11-13T03:25:22.372Z,0.80
2022-11-13T03:28:09.023Z,0.50
2022-11-13T03:30:55.633Z,0.20
2022-11-13T03:33:43.648Z,0.20
2022-11-13T03:36:30.578Z,0.20
2022-11-13T03:39:17.228Z,0.20
2022-11-13T03:42:03.938Z,0.00
2022-11-13T03:44:50.541Z,0.20
2022-11-13T03:47:37.306Z,0.10
2022-11-13T03:50:25.048Z,0.20
2022-11-13T03:53:12.193Z,0.20
2022-11-13T03:55:59.198Z,0.30
2022-11-13T03:58:49.551Z,0.30
2022-11-13T04:01:36.529Z,0.20
2022-11-13T04:04:23.206Z,0.10
2022-11-13T04:07:11.352Z,0.60
2022-11-13T04:09:58.119Z,0.30
2022-11-13T04:12:44.746Z,0.00
2022-11-13T04:15:32.066Z,0.00
2022-11-13T04:18:18.491Z,0.00
2022-11-13T04:21:06.623Z,0.00
2022-11-13T04:23:54.778Z,0.20
2022-11-13T04:26:41.557Z,0.00
2022-11-13T04:29:28.056Z,0.00
2022-11-13T04:32:15.127Z,0.00
2022-11-13T04:35:01.720Z,-0.10
2022-11-13T04:37:48.353Z,0.00
2022-11-13T04:40:36.348Z,-0.10
2022-11-13T04:43:22.217Z,-0.10
2022-11-13T04:46:09.152Z,-0.20
2022-11-13T04:48:55.599Z,-0.20
2022-11-13T04:51:42.033Z,-0.20
2022-11-13T04:54:29.081Z,-0.20
2022-11-13T04:57:17.634Z,-0.10
2022-11-13T05:00:06.634Z,-0.10
2022-11-13T05:02:53.361Z,-0.10
2022-11-13T05:05:39.945Z,-0.10
2022-11-13T05:08:26.726Z,-0.20
2022-11-13T05:11:13.382Z,-0.10
2022-11-13T05:14:03.585Z,-0.20
2022-11-13T05:16:51.626Z,-0.10
2022-11-13T05:19:38.119Z,-0.20
2022-11-13T05:22:24.864Z,-0.20
2022-11-13T05:25:11.641Z,-0.30
2022-11-13T05:27:59.463Z,-0.30
2022-11-13T05:30:47.471Z,-0.40
2022-11-13T05:33:34.540Z,-0.30
2022-11-13T05:36:22.899Z,-0.30
2022-11-13T05:39:10.062Z,-0.30
2022-11-13T05:41:56.304Z,-0.10
2022-11-13T05:44:42.985Z,-0.20
2022-11-13T05:47:31.071Z,-0.40
2022-11-13T05:50:18.079Z,-0.30
2022-11-13T05:53:04.578Z,-0.20
2022-11-13T05:55:51.059Z,-0.20
2022-11-13T05:58:38.291Z,-0.30
2022-11-13T06:01:27.944Z,-0.20
2022-11-13T06:04:16.122Z,-0.30
2022-11-13T06:07:02.705Z,-0.30
2022-11-13T06:09:49.768Z,-0.20
2022-11-13T06:12:36.167Z,-0.30
2022-11-13T06:15:22.649Z,-0.30
2022-11-13T06:18:09.207Z,-0.20
2022-11-13T06:20:57.460Z,-0.20
2022-11-13T06:23:44.532Z,-0.10
2022-11-13T06:26:34.054Z,-0.20
2022-11-13T06:29:20.934Z,-0.40
2022-11-13T06:32:07.682Z,-0.10
2022-11-13T06:34:54.414Z,-0.20
2022-11-13T06:37:42.368Z,-0.20
2022-11-13T06:40:29.203Z,-0.20
2022-11-13T06:43:15.786Z,-0.10
2022-11-13T06:46:05.319Z,0.00
2022-11-13T06:48:52.570Z,0.00
2022-11-13T06:51:39.612Z,-0.20
2022-11-13T06:54:27.617Z,0.00
2022-11-13T06:57:14.482Z,0.00
2022-11-13T07:00:00.867Z,0.10
2022-11-13T07:02:50.086Z,0.20
2022-11-13T07:05:38.220Z,0.20
2022-11-13T07:08:25.061Z,0.20
2022-11-13T07:11:15.863Z,0.20
2022-11-13T07:14:02.699Z,0.20
2022-11-13T07:17:08.790Z,0.30
2022-11-13T07:19:56.151Z,0.40
2022-11-13T07:22:42.784Z,0.40
2022-11-13T07:25:30.376Z,0.40
2022-11-13T07:28:18.472Z,0.50
2022-11-13T07:31:06.099Z,0.60
2022-11-13T07:33:52.721Z,0.90
2022-11-13T07:36:39.294Z,0.90
2022-11-13T07:39:25.963Z,1.10
2022-11-13T07:42:12.465Z,1.10
2022-11-13T07:45:00.538Z,1.20
2022-11-13T07:47:47.223Z,1.20
2022-11-13T07:50:35.841Z,1.20
2022-11-13T07:53:23.546Z,1.10
2022-11-13T07:56:10.489Z,1.00
2022-11-13T07:58:57.077Z,1.10
2022-11-13T08:01:45.057Z,1.20
2022-11-13T08:04:32.207Z,1.20
2022-11-13T08:07:19.439Z,1.30
2022-11-13T08:10:07.055Z,1.20
2022-11-13T08:13:00.206Z,1.30
2022-11-13T08:15:47.172Z,3.80
2022-11-13T08:18:35.327Z,1.80
2022-11-13T08:21:22.432Z,1.20
2022-11-13T08:24:10.759Z,1.40
2022-11-13T08:26:58.001Z,1.40
2022-11-13T08:29:44.817Z,1.80
2022-11-13T08:32:31.541Z,1.70
2022-11-13T08:35:22.060Z,2.10
2022-11-13T08:38:10.789Z,2.10
2022-11-13T08:40:58.558Z,2.40
2022-11-13T08:43:46.410Z,2.60
2022-11-13T08:46:32.922Z,2.70
2022-11-13T08:49:19.751Z,2.70
2022-11-13T08:52:07.866Z,2.60
2022-11-13T08:54:54.731Z,2.70
2022-11-13T08:57:41.551Z,3.00
2022-11-13T09:00:29.009Z,2.80
2022-11-13T09:03:15.757Z,3.00
2022-11-13T09:06:02.334Z,3.40
2022-11-13T09:08:50.333Z,3.60
2022-11-13T09:11:36.926Z,3.70
2022-11-13T09:14:24.975Z,3.80
2022-11-13T09:17:11.662Z,3.80
2022-11-13T09:20:03.538Z,3.80
2022-11-13T09:22:56.832Z,3.90
2022-11-13T09:25:44.924Z,3.90
2022-11-13T09:28:32.095Z,3.60
2022-11-13T09:31:18.956Z,6.50
2022-11-13T09:34:05.922Z,5.20
2022-11-13T09:36:52.811Z,3.40
2022-11-13T09:39:39.386Z,3.30
2022-11-13T09:42:30.492Z,3.20
2022-11-13T09:45:17.684Z,3.40
2022-11-13T09:48:17.635Z,3.40
2022-11-13T09:51:11.809Z,3.70
2022-11-13T09:53:59.715Z,3.50
2022-11-13T09:56:55.291Z,3.70
2022-11-13T09:59:48.703Z,3.70
2022-11-13T10:02:46.801Z,4.00
2022-11-13T10:05:44.028Z,4.70
2022-11-13T10:08:36.048Z,4.80
2022-11-13T10:11:39.343Z,5.00
2022-11-13T10:14:30.699Z,4.80
2022-11-13T10:17:23.831Z,4.70
2022-11-13T10:20:17.058Z,4.30
2022-11-13T10:23:10.488Z,4.50
2022-11-13T10:26:01.265Z,4.80
2022-11-13T10:29:02.940Z,5.20
2022-11-13T10:31:52.109Z,6.00
2022-11-13T10:34:40.812Z,6.40
2022-11-13T10:37:44.245Z,6.40
2022-11-13T10:40:32.601Z,6.30
2022-11-13T10:43:22.369Z,6.50
2022-11-13T10:46:20.204Z,6.70
2022-11-13T10:49:15.133Z,7.00
2022-11-13T10:52:08.392Z,7.10
2022-11-13T10:55:15.425Z,7.00
2022-11-13T10:58:04.480Z,7.20
2022-11-13T11:00:52.499Z,7.10
2022-11-13T11:03:50.356Z,7.10
2022-11-13T11:09:48.764Z,7.80
2022-11-13T11:12:35.357Z,7.70
2022-11-13T11:15:28.004Z,7.00
2022-11-13T11:18:25.611Z,7.10
2022-11-13T11:21:15.614Z,7.70
2022-11-13T11:24:07.623Z,7.70
2022-11-13T11:27:09.583Z,7.70
2022-11-13T11:30:04.730Z,8.10
2022-11-13T11:33:01.746Z,8.40
2022-11-13T11:35:53.402Z,7.50
2022-11-13T11:38:49.688Z,7.80
2022-11-13T11:41:43.381Z,8.10
2022-11-13T11:44:39.277Z,8.40
2022-11-13T11:47:26.241Z,8.80
2022-11-13T11:50:16.455Z,8.40
2022-11-13T11:53:11.596Z,9.20
2022-11-13T11:56:13.505Z,9.50
2022-11-13T11:59:17.483Z,9.20
2022-11-13T12:02:40.119Z,9.90
2022-11-13T12:05:31.489Z,10.10
2022-11-13T12:08:37.507Z,10.20
2022-11-13T12:11:29.828Z,9.80
2022-11-13T12:14:24.105Z,9.80
2022-11-13T12:17:30.508Z,10.70
2022-11-13T12:20:27.593Z,11.50
2022-11-13T12:23:39.171Z,12.00
2022-11-13T12:26:30.202Z,10.90
2022-11-13T12:29:37.551Z,11.30
2022-11-13T12:32:34.713Z,11.50
2022-11-13T12:35:24.167Z,11.60
2022-11-13T12:38:22.662Z,12.10
2022-11-13T12:41:16.828Z,11.80
2022-11-13T12:44:18.974Z,12.80
2022-11-13T12:47:05.533Z,12.80
2022-11-13T12:50:01.499Z,11.80
2022-11-13T12:52:59.911Z,11.50
2022-11-13T12:56:00.145Z,12.00
2022-11-13T12:59:23.696Z,12.50
2022-11-13T13:02:23.517Z,12.20
2022-11-13T13:05:22.544Z,12.60
2022-11-13T13:08:33.889Z,12.60
2022-11-13T13:11:32.734Z,13.10
2022-11-13T13:15:01.493Z,13.20
2022-11-13T13:17:48.329Z,13.90
2022-11-13T13:20:37.556Z,14.30
2022-11-13T13:23:29.278Z,13.70
2022-11-13T13:26:19.293Z,14.00
2022-11-13T13:29:19.207Z,14.20
2022-11-13T13:32:20.735Z,14.30
2022-11-13T13:35:15.834Z,14.90
2022-11-13T13:38:08.976Z,14.80
2022-11-13T13:41:13.071Z,13.30
2022-11-13T13:44:27.039Z,14.30
2022-11-13T13:47:25.123Z,14.70
2022-11-13T13:50:17.409Z,14.90
2022-11-13T13:53:04.319Z,14.40
2022-11-13T13:55:53.492Z,14.00
2022-11-13T13:58:41.208Z,13.00
2022-11-13T14:01:30.647Z,14.40
2022-11-13T14:04:22.489Z,13.30
2022-11-13T14:07:21.678Z,13.30
2022-11-13T14:10:15.540Z,15.20
2022-11-13T14:13:02.203Z,15.00
2022-11-13T14:15:48.673Z,14.70
2022-11-13T14:18:36.345Z,14.00
2022-11-13T14:21:25.228Z,16.10
2022-11-13T14:24:17.913Z,16.00
2022-11-13T14:27:09.577Z,16.00
2022-11-13T14:29:59.222Z,16.50
2022-11-13T14:32:47.442Z,14.70
2022-11-13T14:35:34.395Z,15.20
2022-11-13T14:38:24.485Z,16.10
2022-11-13T14:41:23.468Z,15.20
2022-11-13T14:44:12.661Z,15.10
2022-11-13T14:47:02.435Z,15.60
2022-11-13T14:49:49.206Z,16.60
2022-11-13T14:52:35.703Z,16.30
2022-11-13T14:55:25.234Z,16.10
2022-11-13T14:58:14.949Z,16.30
2022-11-13T15:01:14.018Z,16.50
2022-11-13T15:04:00.517Z,15.20
2022-11-13T15:06:50.914Z,15.10
2022-11-13T15:09:38.103Z,15.50
2022-11-13T15:12:26.410Z,15.00
2022-11-13T15:15:16.779Z,15.40
2022-11-13T15:18:03.949Z,15.60
2022-11-13T15:20:50.501Z,15.50
2022-11-13T15:23:37.194Z,14.70
2022-11-13T15:26:24.184Z,14.50
2022-11-13T15:29:11.985Z,13.70
2022-11-13T15:31:58.975Z,13.50
2022-11-13T15:34:45.515Z,13.50
2022-11-13T15:37:32.227Z,13.00
2022-11-13T15:40:19.097Z,12.60
2022-11-13T15:43:06.461Z,11.80
2022-11-13T15:45:54.687Z,11.50
2022-11-13T15:48:41.202Z,11.00
2022-11-13T15:51:34.851Z,10.60
2022-11-13T15:54:27.377Z,10.10
2022-11-13T15:57:20.699Z,10.10
2022-11-13T16:00:14.500Z,9.70
2022-11-13T16:03:04.620Z,9.50
2022-11-13T16:05:51.820Z,9.80
2022-11-13T16:08:39.277Z,9.70
2022-11-13T16:11:25.906Z,9.10
2022-11-13T16:14:12.608Z,8.90
2022-11-13T16:16:59.172Z,8.70
2022-11-13T16:19:48.845Z,8.30
2022-11-13T16:22:35.312Z,8.30
2022-11-13T16:25:23.040Z,8.00
2022-11-13T16:28:16.185Z,7.80
2022-11-13T16:31:03.564Z,7.60
2022-11-13T16:33:51.144Z,7.40
2022-11-13T16:36:39.690Z,7.50
2022-11-13T16:39:26.476Z,7.10
2022-11-13T16:42:13.463Z,7.50
2022-11-13T16:45:00.159Z,7.20
2022-11-13T16:47:47.736Z,7.10
2022-11-13T16:50:36.897Z,6.60
2022-11-13T16:53:24.760Z,6.40
2022-11-13T16:56:14.157Z,6.20
2022-11-13T16:59:01.191Z,6.00
2022-11-13T17:01:47.819Z,5.90
2022-11-13T17:04:34.572Z,5.80
2022-11-13T17:07:21.482Z,5.70
2022-11-13T17:13:20.858Z,5.50
2022-11-13T17:16:07.691Z,5.50
2022-11-13T17:18:55.362Z,5.50
2022-11-13T17:21:44.416Z,5.50
2022-11-13T17:24:32.001Z,5.20
2022-11-13T17:27:20.347Z,5.00
2022-11-13T17:30:08.619Z,5.10
2022-11-13T17:32:55.255Z,5.50
2022-11-13T17:35:41.662Z,5.30
2022-11-13T17:38:28.651Z,5.20
2022-11-13T17:41:16.775Z,5.00
2022-11-13T17:44:04.839Z,5.10
2022-11-13T17:46:52.014Z,5.00
2022-11-13T17:49:38.507Z,5.10
2022-11-13T17:52:25.096Z,4.90
2022-11-13T17:55:13.100Z,4.70
2022-11-13T17:58:03.415Z,4.70
2022-11-13T18:00:52.642Z,4.60
2022-11-13T18:03:39.934Z,4.90
2022-11-13T18:06:26.718Z,4.60
2022-11-13T18:09:13.470Z,4.40
2022-11-13T18:12:00.107Z,4.30
2022-11-13T18:14:52.164Z,4.30
2022-11-13T18:17:40.057Z,4.20
2022-11-13T18:20:27.801Z,4.10
2022-11-13T18:23:14.354Z,4.10
2022-11-13T18:26:08.487Z,3.70
2022-11-13T18:28:55.317Z,3.80
2022-11-13T18:31:42.529Z,3.60
2022-11-13T18:34:30.640Z,3.30
2022-11-13T18:37:17.617Z,3.30
2022-11-13T18:40:05.038Z,3.60
2022-11-13T18:42:52.270Z,4.00
2022-11-13T18:45:39.039Z,3.60
2022-11-13T18:48:25.911Z,3.60
2022-11-13T18:51:16.454Z,3.50
2022-11-13T18:54:09.423Z,3.50
2022-11-13T18:56:56.459Z,3.70
2022-11-13T18:59:43.525Z,3.50
2022-11-13T19:02:30.861Z,3.40
2022-11-13T19:05:17.666Z,3.50
2022-11-13T19:08:06.110Z,3.40
2022-11-13T19:10:52.773Z,3.40
2022-11-13T19:13:40.720Z,3.40
2022-11-13T19:16:30.018Z,3.30
2022-11-13T19:19:18.492Z,3.30
2022-11-13T19:22:05.445Z,3.20
2022-11-13T19:24:53.593Z,3.20
2022-11-13T19:27:40.031Z,3.20
2022-11-13T19:30:27.235Z,3.30
2022-11-13T19:33:13.963Z,3.30
2022-11-13T19:36:00.444Z,3.30
2022-11-13T19:38:47.001Z,3.10
2022-11-13T19:41:34.988Z,3.10
2022-11-13T19:44:22.062Z,3.00
2022-11-13T19:47:08.832Z,3.10
2022-11-13T19:49:55.533Z,2.90
2022-11-13T19:52:42.350Z,2.80
2022-11-13T19:55:29.089Z,2.70
2022-11-13T19:58:17.339Z,2.70
2022-11-13T20:01:09.615Z,2.60
2022-11-13T20:03:57.562Z,2.60
2022-11-13T20:06:44.297Z,2.50
2022-11-13T20:09:30.727Z,2.50
2022-11-13T20:12:17.682Z,2.40
2022-11-13T20:15:06.703Z,2.30
2022-11-13T20:17:53.350Z,2.10
2022-11-13T20:20:44.431Z,2.00
2022-11-13T20:23:31.439Z,1.90
2022-11-13T20:26:18.326Z,1.90
2022-11-13T20:29:06.816Z,1.80
2022-11-13T20:31:55.562Z,1.80
2022-11-13T20:34:42.196Z,1.70
2022-11-13T20:37:28.874Z,1.70
2022-11-13T20:40:15.567Z,1.60
2022-11-13T20:43:02.987Z,1.60
2022-11-13T20:45:50.157Z,1.60
2022-11-13T20:48:38.628Z,1.70
2022-11-13T20:51:26.845Z,1.70
2022-11-13T20:54:13.877Z,1.60
2022-11-13T20:57:00.456Z,1.60
2022-11-13T20:59:47.109Z,1.50
2022-11-13T21:02:33.636Z,1.60
2022-11-13T21:05:21.544Z,1.50
2022-11-13T21:08:11.419Z,1.50
2022-11-13T21:11:00.531Z,1.60
2022-11-13T21:13:48.941Z,1.60
2022-11-13T21:16:35.619Z,1.50
2022-11-13T21:19:22.616Z,1.50
2022-11-13T21:22:10.747Z,1.50
2022-11-13T21:24:57.762Z,1.50
2022-11-13T21:27:44.609Z,1.50
2022-11-13T21:30:31.137Z,1.40
2022-11-13T21:33:17.743Z,1.50
2022-11-13T21:36:05.955Z,1.40
2022-11-13T21:38:55.344Z,1.40
2022-11-13T21:41:42.274Z,1.50
2022-11-13T21:44:28.616Z,1.50
2022-11-13T21:47:15.169Z,1.50
2022-11-13T21:50:01.941Z,1.50
2022-11-13T21:52:48.930Z,1.40
2022-11-13T21:55:36.910Z,1.50
2022-11-13T21:58:31.268Z,1.40
2022-11-13T22:01:18.457Z,1.50
2022-11-13T22:04:05.692Z,1.40
2022-11-13T22:06:53.605Z,1.40
2022-11-13T22:09:40.808Z,1.30
2022-11-13T22:12:28.639Z,1.30
2022-11-13T22:15:15.766Z,1.40
2022-11-13T22:18:02.298Z,1.30
2022-11-13T22:20:49.540Z,1.40
2022-11-13T22:23:36.620Z,1.40
2022-11-13T22:26:25.305Z,1.40
2022-11-13T22:29:13.531Z,1.40
2022-11-13T22:32:00.330Z,1.30
2022-11-13T22:34:47.145Z,1.30
2022-11-13T22:37:34.011Z,1.30
2022-11-13T22:40:20.449Z,1.30
2022-11-13T22:43:07.057Z,1.30
2022-11-13T22:45:55.122Z,1.20
2022-11-13T22:48:44.469Z,1.20
2022-11-13T22:51:32.658Z,1.30
2022-11-13T22:54:19.381Z,1.20
2022-11-13T22:57:05.968Z,1.20
2022-11-13T22:59:52.907Z,1.20
2022-11-13T23:02:45.951Z,1.20
2022-11-13T23:05:36.272Z,1.30
2022-11-13T23:08:23.059Z,1.30
2022-11-13T23:11:12.979Z,1.30
2022-11-13T23:14:02.044Z,1.40
2022-11-13T23:16:48.641Z,1.50
2022-11-13T23:19:36.663Z,1.40
2022-11-13T23:22:23.663Z,1.40
2022-11-13T23:25:10.433Z,1.50
2022-11-13T23:27:56.958Z,1.60
2022-11-13T23:30:43.505Z,1.60
2022-11-13T23:33:30.501Z,1.60
2022-11-13T23:36:19.040Z,1.70
2022-11-13T23:39:05.951Z,1.60
2022-11-13T23:41:52.610Z,1.60
2022-11-13T23:44:39.265Z,1.40
2022-11-13T23:47:26.075Z,1.50
2022-11-13T23:50:12.988Z,1.50
2022-11-13T23:53:00.945Z,1.60
2022-11-13T23:55:47.749Z,1.50
2022-11-13T23:58:34.552Z,1.30
